Time;durP1;ratioP1;P1;durP2;ratioP2;P2;SDS_P1;SDS_P2;PMS_P1;PMS_P2;Temp;Humidity;BMP_temperature;BMP_pressure;BME280_temperature;BME280_humidity;BME280_pressure;Samples;Min_cycle;Max_cycle;Signal;HPM_P1;HPM_P2
2022/07/11 00:00:27;;;;;;;3.55;2.20;;;22.20;91.60;;;;;;5046875;28;20581;-34
2022/07/11 00:02:56;;;;;;;2.58;1.73;;;22.10;91.60;;;;;;5032428;28;20266;-34
2022/07/11 00:05:23;;;;;;;5.53;1.90;;;22.00;91.60;;;;;;5031237;28;20560;-34
2022/07/11 00:07:55;;;;;;;3.53;2.05;;;22.10;91.70;;;;;;5031449;28;20197;-34
2022/07/11 00:10:22;;;;;;;2.38;1.95;;;22.00;91.70;;;;;;5029973;28;20726;-34
2022/07/11 00:12:49;;;;;;;3.28;2.13;;;22.00;91.70;;;;;;5032240;28;20201;-35
2022/07/11 00:15:17;;;;;;;2.40;2.08;;;22.00;91.70;;;;;;5039974;28;20249;-35
2022/07/11 00:17:46;;;;;;;5.80;2.25;;;21.90;91.80;;;;;;5034331;28;20215;-35
2022/07/11 00:20:13;;;;;;;3.97;2.30;;;22.00;91.90;;;;;;5040271;28;20235;-36
2022/07/11 00:22:43;;;;;;;3.45;1.92;;;21.90;91.90;;;;;;5051148;28;20213;-36
2022/07/11 00:25:10;;;;;;;4.55;2.22;;;21.90;91.90;;;;;;5051509;28;20298;-36
2022/07/11 00:27:37;;;;;;;2.33;2.13;;;21.90;92.30;;;;;;5050448;28;20678;-36
2022/07/11 00:30:05;;;;;;;3.42;2.03;;;21.80;92.00;;;;;;5051058;28;20243;-35
2022/07/11 00:32:35;;;;;;;3.53;1.80;;;21.80;91.90;;;;;;5050996;28;20247;-35
2022/07/11 00:35:02;;;;;;;3.28;2.22;;;21.80;92.00;;;;;;5032843;28;20585;-35
2022/07/11 00:37:30;;;;;;;2.95;2.15;;;21.80;92.00;;;;;;5042794;28;20196;-36
2022/07/11 00:39:59;;;;;;;4.38;2.53;;;21.80;92.10;;;;;;5050758;28;20234;-35
2022/07/11 00:42:26;;;;;;;4.80;2.28;;;21.70;92.10;;;;;;5050954;28;20231;-36
2022/07/11 00:44:56;;;;;;;2.95;2.47;;;21.80;92.20;;;;;;5050942;28;20767;-35
2022/07/11 00:47:25;;;;;;;4.97;2.60;;;21.70;92.20;;;;;;5050908;28;20566;-35
2022/07/11 00:49:53;;;;;;;2.72;2.22;;;21.70;92.20;;;;;;5049971;28;20592;-36
2022/07/11 00:52:20;;;;;;;2.85;2.20;;;21.70;92.20;;;;;;5050332;28;20224;-35
2022/07/11 00:54:47;;;;;;;3.67;2.30;;;21.70;92.30;;;;;;5036296;28;20219;-35
2022/07/11 00:57:14;;;;;;;4.10;2.40;;;21.70;92.30;;;;;;5030676;28;20197;-36
2022/07/11 00:59:44;;;;;;;4.78;1.98;;;21.70;92.40;;;;;;5047727;28;20219;-35
2022/07/11 01:02:12;;;;;;;4.15;2.10;;;21.60;92.40;;;;;;5034682;28;20204;-36
2022/07/11 01:04:41;;;;;;;5.07;2.28;;;21.60;92.40;;;;;;5038107;28;20236;-36
2022/07/11 01:07:10;;;;;;;6.88;2.60;;;21.60;92.40;;;;;;5030753;28;20629;-33
2022/07/11 01:09:38;;;;;;;5.25;2.22;;;21.50;92.40;;;;;;5030893;28;20224;-33
2022/07/11 01:12:08;;;;;;;3.40;2.58;;;21.50;92.40;;;;;;5031797;28;20223;-33
2022/07/11 01:14:36;;;;;;;5.45;2.67;;;21.50;92.50;;;;;;5033537;28;20738;-33
2022/07/11 01:17:05;;;;;;;3.67;2.30;;;21.50;92.60;;;;;;5030335;28;20614;-33
2022/07/11 01:19:33;;;;;;;2.67;2.35;;;21.50;92.60;;;;;;5038050;28;20232;-33
2022/07/11 01:22:04;;;;;;;3.83;2.50;;;21.40;92.60;;;;;;5029678;28;20296;-33
2022/07/11 01:24:32;;;;;;;3.63;2.33;;;21.40;92.70;;;;;;5034112;28;20209;-33
2022/07/11 01:27:03;;;;;;;5.57;2.70;;;21.40;92.70;;;;;;5033498;28;20205;-33
2022/07/11 01:29:33;;;;;;;3.03;2.33;;;21.40;92.70;;;;;;5037955;28;20271;-33
2022/07/11 01:32:00;;;;;;;5.72;3.08;;;21.30;92.70;;;;;;5037963;28;20651;-33
2022/07/11 01:34:28;;;;;;;4.40;2.53;;;21.30;92.70;;;;;;5028669;28;20204;-33
2022/07/11 01:36:55;;;;;;;6.75;2.80;;;21.20;92.70;;;;;;5027900;28;20714;-33
2022/07/11 01:39:24;;;;;;;5.30;2.92;;;21.30;92.80;;;;;;5029860;28;20213;-33
2022/07/11 01:41:55;;;;;;;3.25;2.50;;;21.20;92.80;;;;;;5036276;28;20658;-33
2022/07/11 01:44:22;;;;;;;3.70;3.08;;;21.20;92.90;;;;;;5046757;28;20219;-33
2022/07/11 01:46:49;;;;;;;5.63;3.20;;;21.10;92.80;;;;;;5029495;28;20637;-34
2022/07/11 01:49:19;;;;;;;3.83;2.65;;;21.10;92.80;;;;;;5030151;28;20311;-33
2022/07/11 01:51:51;;;;;;;4.20;3.08;;;21.10;92.90;;;;;;5029451;28;20228;-34
2022/07/11 01:54:21;;;;;;;3.35;2.90;;;21.10;92.90;;;;;;5028195;28;20287;-33
2022/07/11 01:56:48;;;;;;;4.53;3.03;;;21.10;93.00;;;;;;5029468;28;20208;-34
2022/07/11 01:59:15;;;;;;;5.78;3.10;;;21.10;93.00;;;;;;5041509;28;20683;-33
2022/07/11 02:01:45;;;;;;;3.20;2.90;;;21.10;93.00;;;;;;5029784;28;20208;-33
2022/07/11 02:04:12;;;;;;;4.15;3.53;;;21.10;93.00;;;;;;5029391;28;20255;-33
2022/07/11 02:06:41;;;;;;;4.32;3.90;;;21.00;92.90;;;;;;5028718;28;20248;-33
2022/07/11 02:09:11;;;;;;;5.75;3.97;;;21.10;92.90;;;;;;5029217;28;20236;-34
2022/07/11 02:11:40;;;;;;;6.97;4.35;;;21.10;93.00;;;;;;5027603;28;20217;-33
2022/07/11 02:14:07;;;;;;;5.43;3.50;;;21.00;93.00;;;;;;5028846;28;20220;-33
2022/07/11 02:16:34;;;;;;;3.85;3.47;;;21.00;93.10;;;;;;5042002;28;20597;-33
2022/07/11 02:19:06;;;;;;;5.38;3.70;;;21.00;93.50;;;;;;5040984;28;20211;-33
2022/07/11 02:21:36;;;;;;;4.43;3.88;;;21.00;93.00;;;;;;5029777;28;20589;-33
2022/07/11 02:24:04;;;;;;;6.25;4.10;;;21.00;93.20;;;;;;5048788;28;20247;-36
2022/07/11 02:26:31;;;;;;;7.30;4.30;;;21.00;93.30;;;;;;5048823;28;20210;-36
2022/07/11 02:29:01;;;;;;;6.15;4.22;;;20.90;93.30;;;;;;5046873;28;20196;-36
2022/07/11 02:31:33;;;;;;;6.28;4.32;;;20.90;93.20;;;;;;5047162;28;20552;-36
2022/07/11 02:34:05;;;;;;;6.18;4.47;;;20.80;93.10;;;;;;5030727;28;20229;-35
2022/07/11 02:36:34;;;;;;;5.70;4.88;;;20.80;93.30;;;;;;5039721;28;20211;-35
2022/07/11 02:39:02;;;;;;;4.93;4.05;;;20.80;93.30;;;;;;5047218;28;20200;-35
2022/07/11 02:41:29;;;;;;;6.47;4.50;;;20.80;93.40;;;;;;5048655;28;20208;-33
2022/07/11 02:43:59;;;;;;;7.93;4.68;;;20.70;93.40;;;;;;5048075;28;20204;-33
2022/07/11 02:46:28;;;;;;;6.10;4.93;;;20.70;93.50;;;;;;5031106;28;20606;-33
2022/07/11 02:48:58;;;;;;;6.88;5.10;;;20.70;93.50;;;;;;5047749;28;20224;-33
2022/07/11 02:51:25;;;;;;;7.93;5.88;;;20.70;93.40;;;;;;5048036;28;20226;-33
2022/07/11 02:53:52;;;;;;;9.25;5.47;;;20.60;93.40;;;;;;5033579;28;20288;-33
2022/07/11 02:56:20;;;;;;;6.43;4.80;;;20.60;93.50;;;;;;5028643;28;20217;-33
2022/07/11 02:58:52;;;;;;;5.97;4.80;;;20.60;93.60;;;;;;5028200;28;20320;-33
2022/07/11 03:01:21;;;;;;;8.02;5.03;;;20.60;93.60;;;;;;5032138;28;20220;-33
2022/07/11 03:03:49;;;;;;;7.10;4.75;;;20.60;93.60;;;;;;5028126;28;20217;-32
2022/07/11 03:06:16;;;;;;;7.63;5.07;;;20.60;93.70;;;;;;5028519;28;20225;-33
2022/07/11 03:08:45;;;;;;;7.53;4.53;;;20.50;93.70;;;;;;5028359;28;20760;-33
2022/07/11 03:11:13;;;;;;;7.63;5.03;;;20.50;93.80;;;;;;5044384;28;20590;-33
2022/07/11 03:13:45;;;;;;;5.80;5.03;;;20.50;93.70;;;;;;5048418;28;20576;-33
2022/07/11 03:16:15;;;;;;;5.10;4.60;;;20.50;93.70;;;;;;5047993;28;20216;-34
2022/07/11 03:18:44;;;;;;;6.22;4.80;;;20.50;93.80;;;;;;5048185;28;20656;-33
2022/07/11 03:21:14;;;;;;;7.30;5.38;;;20.50;93.80;;;;;;5047672;28;20607;-33
2022/07/11 03:23:41;;;;;;;5.78;4.95;;;20.40;93.80;;;;;;5041495;28;20314;-33
2022/07/11 03:26:10;;;;;;;6.03;4.78;;;20.40;93.80;;;;;;5028554;28;20209;-33
2022/07/11 03:28:37;;;;;;;8.02;5.75;;;20.40;93.80;;;;;;5050194;28;20291;-33
2022/07/11 03:31:05;;;;;;;8.93;5.20;;;20.40;93.90;;;;;;5052199;28;20196;-33
2022/07/11 03:33:44;;;;;;;6.93;5.65;;;20.40;93.90;;;;;;5052033;28;20239;-34
2022/07/11 03:36:14;;;;;;;7.60;5.57;;;20.40;93.80;;;;;;5051640;28;20196;-33
2022/07/11 03:38:43;;;;;;;8.65;6.07;;;20.30;93.90;;;;;;5034278;28;20220;-33
2022/07/11 03:41:11;;;;;;;9.40;6.80;;;20.30;93.90;;;;;;5050962;28;20716;-33
2022/07/11 03:43:40;;;;;;;8.60;6.53;;;20.30;94.00;;;;;;5046602;28;20242;-33
2022/07/11 03:46:08;;;;;;;8.70;6.28;;;20.30;94.00;;;;;;5040168;28;20196;-33
2022/07/11 03:48:38;;;;;;;8.55;6.57;;;20.30;94.00;;;;;;5035374;28;20701;-33
2022/07/11 03:51:07;;;;;;;11.10;7.03;;;20.30;94.10;;;;;;5031631;28;20307;-33
2022/07/11 03:53:37;;;;;;;9.93;6.82;;;20.20;94.00;;;;;;5031738;28;20204;-33
2022/07/11 03:56:05;;;;;;;9.57;6.82;;;20.30;94.00;;;;;;5031614;28;20680;-33
2022/07/11 03:58:32;;;;;;;7.53;6.32;;;20.20;94.00;;;;;;5044666;28;20273;-34
2022/07/11 04:01:01;;;;;;;9.40;7.18;;;20.30;94.00;;;;;;5049443;28;20231;-33
2022/07/11 04:03:33;;;;;;;9.10;7.47;;;20.30;94.20;;;;;;5031902;28;20212;-34
2022/07/11 04:06:01;;;;;;;8.88;7.70;;;20.20;94.30;;;;;;5031201;28;20197;-34
2022/07/11 04:08:28;;;;;;;11.73;7.95;;;20.20;94.20;;;;;;5029925;28;20703;-33
2022/07/11 04:10:58;;;;;;;10.63;8.32;;;20.20;94.10;;;;;;5031502;28;20576;-34
2022/07/11 04:13:25;;;;;;;9.77;7.30;;;20.20;94.40;;;;;;5031225;28;20306;-34
2022/07/11 04:15:54;;;;;;;9.65;7.75;;;20.20;94.30;;;;;;5047743;28;20303;-34
2022/07/11 04:18:22;;;;;;;10.55;8.43;;;20.20;94.40;;;;;;5040631;28;20567;-34
2022/07/11 04:20:49;;;;;;;11.88;8.35;;;20.20;94.40;;;;;;5029265;28;20201;-33
2022/07/11 04:23:16;;;;;;;9.90;7.88;;;20.20;94.50;;;;;;5031403;28;20209;-32
2022/07/11 04:25:46;;;;;;;11.07;7.80;;;20.20;94.50;;;;;;5039646;28;20644;-33
2022/07/11 04:28:16;;;;;;;9.60;8.23;;;20.20;94.60;;;;;;5050768;28;20212;-33
2022/07/11 04:30:43;;;;;;;11.65;8.48;;;20.20;94.60;;;;;;5051212;28;20196;-33
2022/07/11 04:33:12;;;;;;;10.98;8.73;;;20.20;94.60;;;;;;5029926;28;20225;-34
2022/07/11 04:35:42;;;;;;;12.10;9.93;;;20.20;94.70;;;;;;5031145;28;20219;-33
2022/07/11 04:38:09;;;;;;;13.07;9.40;;;20.20;94.60;;;;;;5029654;28;20575;-33
2022/07/11 04:40:38;;;;;;;10.80;9.23;;;20.30;94.70;;;;;;5044880;28;20288;-33
2022/07/11 04:43:06;;;;;;;12.60;8.63;;;20.30;94.80;;;;;;5030475;28;20247;-33
2022/07/11 04:45:33;;;;;;;10.68;9.13;;;20.30;94.80;;;;;;5030730;28;20270;-33
2022/07/11 04:48:01;;;;;;;12.02;8.45;;;20.30;94.90;;;;;;5031138;28;20707;-36
2022/07/11 04:50:31;;;;;;;14.35;9.07;;;20.30;94.90;;;;;;5030464;28;20550;-36
2022/07/11 04:52:58;;;;;;;12.80;10.13;;;20.30;94.90;;;;;;5035829;28;20283;-36
2022/07/11 04:55:25;;;;;;;10.35;8.75;;;20.30;94.90;;;;;;5048340;28;20686;-36
2022/07/11 04:57:52;;;;;;;9.90;8.57;;;20.30;94.90;;;;;;5050032;28;20236;-36
2022/07/11 05:00:22;;;;;;;12.18;9.75;;;20.30;94.90;;;;;;5058899;28;20651;-36
2022/07/11 05:02:55;;;;;;;14.50;10.07;;;20.30;95.00;;;;;;5055247;28;20209;-36
2022/07/11 05:05:23;;;;;;;13.20;11.13;;;20.40;95.00;;;;;;5049226;28;20323;-36
2022/07/11 05:07:51;;;;;;;13.93;11.50;;;20.40;95.00;;;;;;5050457;28;20309;-36
2022/07/11 05:10:18;;;;;;;11.50;10.30;;;20.40;95.00;;;;;;5031381;28;20209;-35
2022/07/11 05:12:47;;;;;;;13.60;10.95;;;20.40;95.10;;;;;;5029565;28;20315;-36
2022/07/11 05:15:17;;;;;;;14.25;10.52;;;20.40;95.10;;;;;;5030068;28;20200;-36
2022/07/11 05:17:44;;;;;;;13.07;10.18;;;20.50;95.20;;;;;;5030253;28;20219;-36
2022/07/11 05:20:15;;;;;;;14.00;10.88;;;20.50;95.10;;;;;;5030110;28;20212;-36
2022/07/11 05:22:43;;;;;;;14.40;11.00;;;20.50;95.10;;;;;;5030772;28;20264;-36
2022/07/11 05:25:10;;;;;;;14.23;10.48;;;20.50;95.20;;;;;;5030756;28;20197;-36
2022/07/11 05:27:37;;;;;;;13.80;10.82;;;20.50;95.20;;;;;;5049596;28;20208;-36
2022/07/11 05:30:10;;;;;;;12.25;9.90;;;20.50;95.30;;;;;;5048839;28;20207;-36
2022/07/11 05:32:42;;;;;;;13.77;10.35;;;20.50;95.30;;;;;;5049707;28;20277;-35
2022/07/11 05:35:09;;;;;;;14.98;11.55;;;20.50;95.30;;;;;;5049422;28;20202;-35
2022/07/11 05:37:37;;;;;;;14.45;10.02;;;20.50;95.30;;;;;;5050138;28;20261;-36
2022/07/11 05:40:05;;;;;;;13.35;10.07;;;20.50;95.30;;;;;;5029480;28;20212;-36
2022/07/11 05:42:33;;;;;;;14.20;10.75;;;20.60;95.40;;;;;;5029314;28;20582;-36
2022/07/11 05:45:00;;;;;;;13.27;10.20;;;20.60;95.40;;;;;;5029833;28;20693;-35
2022/07/11 05:47:28;;;;;;;12.88;9.95;;;20.60;95.40;;;;;;5029757;28;20220;-35
2022/07/11 05:49:55;;;;;;;14.07;11.18;;;20.60;95.50;;;;;;5029183;28;20228;-36
2022/07/11 05:52:27;;;;;;;13.68;11.13;;;20.70;95.60;;;;;;5027738;28;20221;-35
2022/07/11 05:54:54;;;;;;;15.23;11.50;;;20.70;95.60;;;;;;5029608;28;20741;-34
2022/07/11 05:57:21;;;;;;;15.07;10.85;;;20.70;95.50;;;;;;5028752;28;20248;-34
2022/07/11 05:59:48;;;;;;;13.60;9.90;;;20.80;95.60;;;;;;5037584;28;20284;-34
2022/07/11 06:02:23;;;;;;;13.75;10.25;;;20.80;95.60;;;;;;5049475;28;20232;-34
2022/07/11 06:04:50;;;;;;;14.77;10.27;;;20.80;95.60;;;;;;5047208;28;20211;-34
2022/07/11 06:10:04;;;;;;;17.13;10.38;;;20.90;95.60;;;;;;5049252;28;20196;-36
2022/07/11 06:12:33;;;;;;;13.48;8.75;;;21.00;95.90;;;;;;5048799;28;20212;-36
2022/07/11 06:15:00;;;;;;;12.02;9.02;;;21.00;95.70;;;;;;5031262;28;20217;-35
2022/07/11 06:17:27;;;;;;;10.38;8.05;;;21.00;95.80;;;;;;5040135;28;20227;-36
2022/07/11 06:19:57;;;;;;;12.48;8.20;;;21.00;95.80;;;;;;5048607;28;20203;-36
2022/07/11 06:22:24;;;;;;;8.85;6.40;;;21.00;95.80;;;;;;5048780;28;20240;-35
2022/07/11 06:24:52;;;;;;;12.85;8.25;;;21.00;95.80;;;;;;5047454;28;20655;-35
2022/07/11 06:27:21;;;;;;;10.90;7.03;;;21.10;96.00;;;;;;5048825;28;20212;-35
2022/07/11 06:29:48;;;;;;;11.65;8.15;;;21.10;95.90;;;;;;5048431;28;20699;-36
2022/07/11 06:32:18;;;;;;;12.57;7.30;;;21.10;95.90;;;;;;5029459;28;20713;-35
2022/07/11 06:34:45;;;;;;;10.80;7.32;;;21.10;96.00;;;;;;5041588;28;20210;-39
2022/07/11 06:37:12;;;;;;;10.88;7.60;;;21.10;96.00;;;;;;5048612;28;20740;-35
2022/07/11 06:39:39;;;;;;;9.20;7.32;;;21.10;96.00;;;;;;5048443;28;20199;-36
2022/07/11 06:42:07;;;;;;;9.50;7.40;;;21.20;96.10;;;;;;5048683;28;20243;-36
2022/07/11 06:44:34;;;;;;;9.20;6.63;;;21.20;96.10;;;;;;5047642;28;20192;-36
2022/07/11 06:47:01;;;;;;;8.98;6.10;;;21.20;96.10;;;;;;5047255;28;20709;-35
2022/07/11 06:49:28;;;;;;;6.95;5.63;;;21.30;96.20;;;;;;5048372;28;20219;-36
2022/07/11 06:51:55;;;;;;;7.10;5.50;;;21.30;96.10;;;;;;5031154;28;20209;-35
2022/07/11 06:54:22;;;;;;;8.77;5.40;;;21.40;96.10;;;;;;5028599;28;20621;-35
2022/07/11 06:56:50;;;;;;;9.80;5.00;;;21.40;96.20;;;;;;5026836;28;20221;-35
2022/07/11 06:59:17;;;;;;;9.10;4.80;;;21.40;96.30;;;;;;5027545;28;20243;-35
2022/07/11 07:01:48;;;;;;;8.73;5.90;;;21.40;96.30;;;;;;5067752;28;20227;-35
2022/07/11 07:04:18;;;;;;;10.05;6.10;;;21.50;96.30;;;;;;5042064;28;20294;-35
2022/07/11 07:06:46;;;;;;;10.23;7.55;;;21.50;96.30;;;;;;5028866;28;20221;-35
2022/07/11 07:09:15;;;;;;;9.82;7.05;;;21.60;96.40;;;;;;5041054;28;20641;-35
2022/07/11 07:11:43;;;;;;;10.65;6.57;;;21.60;96.40;;;;;;5028079;28;20208;-35
2022/07/11 07:14:14;;;;;;;10.85;7.50;;;21.70;96.40;;;;;;5027901;28;20785;-35
2022/07/11 07:16:42;;;;;;;10.13;6.00;;;21.70;96.50;;;;;;5028151;28;20196;-35
2022/07/11 07:19:09;;;;;;;9.88;6.38;;;21.70;96.40;;;;;;5028246;28;20549;-35
2022/07/11 07:21:36;;;;;;;13.32;6.45;;;21.80;96.60;;;;;;5032094;28;20208;-35
2022/07/11 07:24:06;;;;;;;9.02;5.60;;;21.80;96.50;;;;;;5047331;28;20610;-35
2022/07/11 07:26:39;;;;;;;10.55;6.13;;;21.90;96.50;;;;;;5026742;28;20535;-35
2022/07/11 07:29:09;;;;;;;8.05;5.55;;;21.90;96.50;;;;;;5026405;28;20201;-35
2022/07/11 07:31:36;;;;;;;8.30;5.45;;;21.90;96.50;;;;;;5040112;28;20224;-35
2022/07/11 07:34:04;;;;;;;6.60;5.10;;;21.90;96.50;;;;;;5034881;28;20600;-35
2022/07/11 07:36:35;;;;;;;8.93;5.57;;;22.00;96.60;;;;;;5027614;28;20568;-35
2022/07/11 07:39:04;;;;;;;10.27;5.70;;;22.00;96.60;;;;;;5037361;28;20207;-35
2022/07/11 07:41:34;;;;;;;6.72;5.18;;;22.10;96.70;;;;;;5043520;28;20221;-35
2022/07/11 07:44:02;;;;;;;9.18;5.05;;;22.20;96.70;;;;;;5027823;28;20208;-35
2022/07/11 07:46:29;;;;;;;6.88;4.43;;;22.20;96.80;;;;;;5026846;28;20204;-35
2022/07/11 07:48:56;;;;;;;7.18;4.78;;;22.20;96.80;;;;;;5027895;28;20226;-35
2022/07/11 07:51:23;;;;;;;8.45;5.43;;;22.30;96.80;;;;;;5027312;28;20221;-35
2022/07/11 07:53:51;;;;;;;6.32;4.72;;;22.30;96.90;;;;;;5027995;28;20279;-35
2022/07/11 07:56:24;;;;;;;12.02;4.95;;;22.40;96.90;;;;;;5028612;28;20215;-35
2022/07/11 07:58:52;;;;;;;11.55;5.25;;;22.50;96.90;;;;;;5033616;28;20236;-35
2022/07/11 08:01:35;;;;;;;7.25;3.92;;;22.50;96.90;;;;;;5064411;28;20245;-35
2022/07/11 08:04:06;;;;;;;8.13;4.20;;;22.60;96.90;;;;;;5056446;28;20227;-36
2022/07/11 08:06:34;;;;;;;8.55;4.85;;;22.70;97.00;;;;;;5045812;28;20584;-36
2022/07/11 08:09:07;;;;;;;7.43;4.53;;;22.70;97.00;;;;;;5047630;28;20208;-35
2022/07/11 08:11:35;;;;;;;8.50;4.85;;;22.70;97.00;;;;;;5046308;28;20207;-35
2022/07/11 08:14:07;;;;;;;7.57;4.25;;;22.80;97.10;;;;;;5047878;28;20987;-36
2022/07/11 08:16:35;;;;;;;8.30;4.07;;;22.80;97.00;;;;;;5038350;28;20732;-36
2022/07/11 08:19:04;;;;;;;9.93;5.30;;;22.80;97.00;;;;;;5034838;28;20213;-36
2022/07/11 08:21:33;;;;;;;7.20;4.32;;;22.90;97.00;;;;;;5037290;28;20732;-36
2022/07/11 08:24:01;;;;;;;7.65;4.40;;;22.90;96.90;;;;;;5031313;28;20204;-36
2022/07/11 08:26:31;;;;;;;9.55;4.10;;;22.90;96.90;;;;;;5031054;28;20259;-35
2022/07/11 08:29:04;;;;;;;4.75;3.63;;;22.90;96.90;;;;;;5030918;28;20213;-35
2022/07/11 08:31:31;;;;;;;6.15;3.28;;;22.90;96.90;;;;;;5048755;28;20208;-35
2022/07/11 08:33:59;;;;;;;5.40;3.25;;;23.00;97.00;;;;;;5032034;28;20256;-35
2022/07/11 08:36:30;;;;;;;7.22;3.20;;;23.00;97.00;;;;;;5047314;28;20749;-35
2022/07/11 08:38:58;;;;;;;5.47;3.03;;;23.10;97.10;;;;;;5039959;28;20197;-35
2022/07/11 08:41:26;;;;;;;3.72;2.58;;;23.10;97.10;;;;;;5029452;28;20307;-35
2022/07/11 08:43:56;;;;;;;8.48;3.20;;;23.20;97.10;;;;;;5030801;28;20208;-35
2022/07/11 08:46:25;;;;;;;6.45;3.45;;;23.20;97.10;;;;;;5017842;28;20221;-35
2022/07/11 08:48:54;;;;;;;5.82;3.75;;;23.20;97.10;;;;;;5050631;28;20295;-36
2022/07/11 08:51:23;;;;;;;4.00;2.58;;;23.20;97.00;;;;;;5031054;28;20209;-35
2022/07/11 08:53:51;;;;;;;5.28;3.40;;;23.20;97.10;;;;;;5030091;28;20213;-35
2022/07/11 08:56:22;;;;;;;5.32;3.10;;;23.30;97.10;;;;;;5029042;28;20212;-36
2022/07/11 08:58:52;;;;;;;4.88;2.85;;;23.30;97.10;;;;;;5030146;28;20303;-36
2022/07/11 09:01:34;;;;;;;4.38;2.38;;;23.30;97.10;;;;;;5063526;28;20724;-35
2022/07/11 09:04:08;;;;;;;4.03;2.28;;;23.30;97.10;;;;;;5058151;28;20308;-35
2022/07/11 09:06:35;;;;;;;3.97;2.45;;;23.40;97.50;;;;;;5043885;28;20209;-35
2022/07/11 09:09:03;;;;;;;3.65;2.10;;;23.40;97.20;;;;;;5030187;28;20703;-35
2022/07/11 09:11:51;;;;;;;2.85;2.40;;;23.50;97.20;;;;;;5030421;28;20773;-35
2022/07/11 09:14:27;;;;;;;8.98;2.70;;;23.60;97.30;;;;;;5029808;28;20217;-35
2022/07/11 09:17:04;;;;;;;5.15;2.60;;;23.60;97.30;;;;;;5030215;28;20742;-35
2022/07/11 09:19:33;;;;;;;2.78;2.28;;;23.60;97.30;;;;;;5012728;28;20457;-35
2022/07/11 09:28:00;;;;;;;4.57;3.22;;;23.70;97.30;;;;;;5036234;28;20212;-35
2022/07/11 09:30:43;;;;;;;4.55;2.35;;;23.80;97.30;;;;;;5033627;28;20254;-35
2022/07/11 09:33:14;;;;;;;3.63;2.28;;;23.70;97.20;;;;;;5030732;28;20646;-41
2022/07/11 09:35:45;;;;;;;2.47;2.28;;;23.70;97.30;;;;;;5046898;28;20235;-43
2022/07/11 09:38:17;;;;;;;5.93;2.20;;;23.80;97.40;;;;;;5049114;28;20215;-43
2022/07/11 09:40:46;;;;;;;5.75;2.40;;;23.80;97.40;;;;;;5042640;28;20228;-43
2022/07/11 09:43:23;;;;;;;3.75;2.17;;;23.80;97.40;;;;;;5029608;28;20297;-43
2022/07/11 09:45:50;;;;;;;5.25;2.45;;;23.80;97.30;;;;;;5029615;28;20215;-43
2022/07/11 09:48:18;;;;;;;4.70;1.90;;;23.80;97.40;;;;;;5029616;28;20296;-43
2022/07/11 09:51:00;;;;;;;3.78;1.90;;;23.80;97.30;;;;;;5029079;28;20200;-43
2022/07/11 09:53:27;;;;;;;3.60;1.83;;;23.90;97.40;;;;;;5029466;28;20757;-43
2022/07/11 09:55:57;;;;;;;2.25;1.50;;;23.90;97.50;;;;;;5030091;28;20217;-43
2022/07/11 09:58:31;;;;;;;3.67;1.80;;;23.90;97.50;;;;;;5039988;28;20558;-44
2022/07/11 10:00:59;;;;;;;3.38;1.92;;;24.00;97.60;;;;;;5061975;28;20223;-44
2022/07/11 10:03:31;;;;;;;4.22;2.10;;;24.00;97.60;;;;;;5062597;28;20201;-43
2022/07/11 10:06:24;;;;;;;3.40;1.60;;;24.10;97.60;;;;;;5048832;28;20196;-43
2022/07/11 10:08:52;;;;;;;2.40;1.70;;;24.10;97.50;;;;;;5049393;28;20209;-43
2022/07/11 10:11:21;;;;;;;2.70;1.30;;;24.10;97.50;;;;;;5048202;28;20212;-42
2022/07/11 10:13:53;;;;;;;2.38;1.60;;;24.10;97.50;;;;;;5048573;28;20224;-43
2022/07/11 10:16:38;;;;;;;3.78;1.80;;;24.10;97.50;;;;;;5029698;28;20200;-43
2022/07/11 10:19:18;;;;;;;3.53;1.63;;;24.10;97.50;;;;;;5027438;28;20244;-43
2022/07/11 10:22:12;;;;;;;2.42;1.35;;;24.20;97.50;;;;;;5028532;28;20201;-43
2022/07/11 10:25:02;;;;;;;3.70;1.60;;;24.10;97.50;;;;;;5028799;28;20200;-43
2022/07/11 10:28:22;;;;;;;1.55;1.13;;;24.20;97.60;;;;;;5028638;28;20208;-42
2022/07/11 10:30:52;;;;;;;3.58;1.65;;;24.20;97.60;;;;;;4986531;28;20677;-42
2022/07/11 10:33:19;;;;;;;2.92;1.42;;;24.20;97.60;;;;;;5004876;28;20213;-43
2022/07/11 10:35:51;;;;;;;1.88;1.20;;;24.30;97.60;;;;;;5022473;28;20671;-42
2022/07/11 10:38:23;;;;;;;2.58;1.50;;;24.30;97.70;;;;;;5040189;28;20214;-43
2022/07/11 10:40:55;;;;;;;4.82;1.77;;;24.30;97.60;;;;;;5048269;28;20318;-45
2022/07/11 10:43:24;;;;;;;4.50;1.90;;;24.30;97.60;;;;;;5047842;28;20232;-43
2022/07/11 10:46:09;;;;;;;5.20;1.88;;;24.30;97.50;;;;;;5039704;28;20224;-43
2022/07/11 10:48:55;;;;;;;5.35;1.58;;;24.40;97.50;;;;;;5027492;28;20308;-43
2022/07/11 10:51:38;;;;;;;4.68;1.50;;;24.40;97.60;;;;;;5028317;28;20200;-35
2022/07/11 10:54:51;;;;;;;3.20;1.63;;;24.40;97.60;;;;;;5026941;28;20223;-35
2022/07/11 10:57:53;;;;;;;3.80;2.03;;;24.50;97.80;;;;;;5028237;28;20224;-34
2022/07/11 11:00:21;;;;;;;5.93;1.90;;;24.50;97.70;;;;;;5045484;28;20230;-35
2022/07/11 11:03:07;;;;;;;1.73;1.63;;;24.60;97.70;;;;;;5051829;28;20198;-34
2022/07/11 11:05:52;;;;;;;4.35;2.40;;;24.60;97.80;;;;;;5031055;28;20215;-34
2022/07/11 11:08:35;;;;;;;5.05;2.28;;;24.60;97.80;;;;;;5047186;28;20196;-34
2022/07/11 11:11:03;;;;;;;5.30;2.22;;;24.70;97.70;;;;;;5048031;28;20254;-35
2022/07/11 11:13:35;;;;;;;3.33;2.25;;;24.70;97.60;;;;;;5047838;28;20234;-34
2022/07/11 11:16:24;;;;;;;5.70;3.28;;;24.70;97.70;;;;;;5048004;28;20223;-34
2022/07/11 11:18:54;;;;;;;3.42;2.35;;;24.70;97.70;;;;;;5047318;28;20211;-34
2022/07/11 11:21:24;;;;;;;4.97;2.60;;;24.70;97.60;;;;;;5026438;28;20625;-35
2022/07/11 11:24:00;;;;;;;4.85;2.90;;;24.70;97.60;;;;;;5028640;28;20238;-34
2022/07/11 11:26:44;;;;;;;3.00;2.70;;;24.70;97.60;;;;;;5026523;28;20208;-34
2022/07/11 11:29:17;;;;;;;3.42;2.60;;;24.70;97.60;;;;;;5025944;28;20207;-35
2022/07/11 11:31:49;;;;;;;4.35;2.80;;;24.70;97.60;;;;;;5027599;28;20338;-34
2022/07/11 11:34:20;;;;;;;4.05;3.00;;;24.70;97.60;;;;;;5027382;28;20225;-34
2022/07/11 11:37:17;;;;;;;3.97;2.90;;;24.70;97.60;;;;;;5028031;28;20216;-35
2022/07/11 11:39:49;;;;;;;3.78;3.22;;;24.80;97.70;;;;;;5034089;28;20588;-34
2022/07/11 11:42:17;;;;;;;4.80;3.38;;;24.80;97.70;;;;;;5047486;28;20254;-36
2022/07/11 11:44:58;;;;;;;4.15;3.30;;;24.80;97.60;;;;;;5047192;28;20204;-36
2022/07/11 11:47:29;;;;;;;4.40;3.00;;;24.80;97.60;;;;;;5043645;28;20216;-36
2022/07/11 11:49:56;;;;;;;3.05;2.80;;;24.80;97.60;;;;;;5036454;28;20299;-36
2022/07/11 11:52:24;;;;;;;4.28;2.83;;;24.80;97.60;;;;;;5031302;28;20214;-36
2022/07/11 11:54:53;;;;;;;3.75;3.28;;;24.80;97.70;;;;;;5047786;28;20301;-36
2022/07/11 11:57:24;;;;;;;5.40;3.47;;;24.90;97.60;;;;;;5040367;28;20221;-36
2022/07/11 11:59:56;;;;;;;3.58;3.00;;;24.90;97.70;;;;;;5039894;28;20209;-36
2022/07/11 12:02:29;;;;;;;4.30;3.50;;;24.90;97.70;;;;;;5070174;28;20199;-36
2022/07/11 12:04:58;;;;;;;3.90;2.75;;;24.90;97.70;;;;;;5044389;28;20236;-36
2022/07/11 12:07:29;;;;;;;3.85;2.67;;;25.00;97.80;;;;;;5031154;28;20213;-36
2022/07/11 12:09:59;;;;;;;4.53;3.78;;;25.00;97.90;;;;;;5032013;28;20221;-36
2022/07/11 12:12:47;;;;;;;5.88;3.20;;;25.00;97.80;;;;;;5051325;28;20207;-36
2022/07/11 12:15:34;;;;;;;3.03;2.72;;;25.00;97.80;;;;;;5032661;28;20240;-36
2022/07/11 12:18:07;;;;;;;3.03;2.72;;;25.10;97.80;;;;;;5031415;28;20212;-36
2022/07/11 12:20:38;;;;;;;4.38;3.10;;;25.10;97.80;;;;;;5029959;28;20867;-36
2022/07/11 12:23:11;;;;;;;3.58;2.97;;;25.10;97.80;;;;;;5031445;28;20236;-36
2022/07/11 12:25:48;;;;;;;4.20;3.03;;;25.10;97.80;;;;;;5031360;28;20232;-36
2022/07/11 12:28:16;;;;;;;3.10;2.80;;;25.20;97.80;;;;;;5032006;28;20216;-36
2022/07/11 12:30:43;;;;;;;3.13;2.92;;;25.20;97.80;;;;;;5029541;28;20219;-36
2022/07/11 12:33:15;;;;;;;5.07;3.00;;;25.20;97.70;;;;;;5031038;28;20221;-36
2022/07/11 12:35:57;;;;;;;3.47;2.63;;;25.20;97.80;;;;;;5033795;28;20217;-36
2022/07/11 12:38:25;;;;;;;3.25;2.67;;;25.20;97.80;;;;;;5051275;28;20250;-35
2022/07/11 12:41:04;;;;;;;3.00;2.70;;;25.30;97.90;;;;;;5050282;28;20678;-36
2022/07/11 12:46:30;;;;;;;3.90;3.50;;;25.40;97.90;;;;;;5030495;28;20255;-36
2022/07/11 12:49:00;;;;;;;3.70;3.40;;;25.50;98.00;;;;;;5031291;28;20678;-36
2022/07/11 12:51:41;;;;;;;4.18;3.45;;;25.50;98.00;;;;;;5030346;28;20205;-35
2022/07/11 12:54:11;;;;;;;4.28;3.65;;;25.60;98.10;;;;;;5030619;28;20296;-35
2022/07/11 12:56:53;;;;;;;4.28;3.80;;;25.60;98.00;;;;;;5039434;28;20562;-35
2022/07/11 12:59:25;;;;;;;4.57;4.15;;;25.70;98.00;;;;;;5033016;28;20232;-36
2022/07/11 13:02:00;;;;;;;4.25;3.85;;;25.70;98.00;;;;;;5052439;28;20197;-35
2022/07/11 13:04:50;;;;;;;5.72;4.57;;;25.80;98.10;;;;;;5033629;28;20211;-35
2022/07/11 13:10:08;;;;;;;4.95;4.32;;;25.90;98.00;;;;;;5029855;28;20236;-44
2022/07/11 13:12:36;;;;;;;4.70;3.97;;;25.90;98.00;;;;;;5030757;28;20605;-43
2022/07/11 13:15:11;;;;;;;5.93;4.15;;;26.00;98.10;;;;;;5030080;28;20260;-43